Time;durP1;ratioP1;P1;durP2;ratioP2;P2;SDS_P1;SDS_P2;PMS_P1;PMS_P2;Temp;Humidity;BMP_temperature;BMP_pressure;BME280_temperature;BME280_humidity;BME280_pressure;Samples;Min_cycle;Max_cycle;Signal;HPM_P1;HPM_P2
2022/05/09 00:00:07;;;;;;;17.17;4.10;;;;;;;6.45;83.71;102703.47;1039743;28;20391;-78
2022/05/09 00:00:45;;;;;;;18.83;7.60;;;;;;;6.59;83.51;102704.03;1037247;28;20291;-78
2022/05/09 00:01:16;;;;;;;14.82;3.80;;;;;;;6.26;83.35;102706.16;1037188;28;20300;-78
2022/05/09 00:01:48;;;;;;;9.32;3.65;;;;;;;6.24;83.39;102700.19;1039825;28;20442;-78
2022/05/09 00:02:19;;;;;;;22.33;4.85;;;;;;;6.20;84.04;102709.38;1038658;28;20296;-78
2022/05/09 00:02:51;;;;;;;15.10;4.50;;;;;;;6.29;84.19;102708.53;1039789;28;20362;-78
2022/05/09 00:03:23;;;;;;;14.65;5.07;;;;;;;6.38;84.18;102706.84;1039344;28;20300;-78
2022/05/09 00:03:55;;;;;;;10.55;4.70;;;;;;;6.28;84.40;102698.91;1037298;28;20825;-78
2022/05/09 00:04:27;;;;;;;13.00;4.80;;;;;;;6.38;84.34;102705.03;1039880;28;20794;-78
2022/05/09 00:04:58;;;;;;;12.10;4.38;;;;;;;6.41;83.96;102702.09;1043609;28;20786;-78
2022/05/09 00:05:30;;;;;;;12.32;5.05;;;;;;;6.55;83.52;102703.44;1044218;28;20291;-78
2022/05/09 00:06:02;;;;;;;12.38;4.30;;;;;;;6.51;83.38;102700.25;1043440;28;20677;-78
2022/05/09 00:06:35;;;;;;;12.30;4.15;;;;;;;6.28;83.46;102701.56;1039426;28;20398;-78
2022/05/09 00:07:07;;;;;;;12.38;4.07;;;;;;;6.10;83.49;102703.28;1039694;28;20750;-78
2022/05/09 00:07:39;;;;;;;6.80;3.85;;;;;;;5.96;83.51;102696.59;1036231;28;20292;-78
2022/05/09 00:08:11;;;;;;;14.35;4.65;;;;;;;6.16;84.08;102700.06;1039522;28;20312;-78
2022/05/09 00:08:43;;;;;;;10.65;4.53;;;;;;;6.20;84.12;102704.94;1035525;28;20500;-78
2022/05/09 00:09:16;;;;;;;14.52;4.93;;;;;;;6.23;84.62;102708.25;1035928;28;20336;-78
2022/05/09 00:09:47;;;;;;;7.68;3.85;;;;;;;5.92;83.59;102697.84;1035430;28;20682;-78
2022/05/09 00:10:23;;;;;;;11.45;4.15;;;;;;;5.75;84.28;102707.31;1035874;28;20316;-78
2022/05/09 00:10:55;;;;;;;16.55;4.97;;;;;;;5.77;85.14;102702.72;1034811;28;20301;-78
2022/05/09 00:11:27;;;;;;;10.18;4.32;;;;;;;5.77;85.01;102701.88;1036803;28;20346;-77
2022/05/09 00:11:58;;;;;;;11.02;5.53;;;;;;;5.87;85.42;102708.00;1040147;28;20292;-78
2022/05/09 00:12:31;;;;;;;17.70;4.78;;;;;;;5.93;85.45;102706.63;1035555;28;20300;-78
2022/05/09 00:13:03;;;;;;;11.75;5.65;;;;;;;5.59;86.18;102704.34;1035855;28;20308;-78
2022/05/09 00:13:36;;;;;;;25.45;8.02;;;;;;;5.52;86.65;102708.53;1040307;28;20296;-78
2022/05/09 00:14:08;;;;;;;13.93;4.70;;;;;;;5.26;87.19;102711.69;1040726;28;20659;-78
2022/05/09 00:14:39;;;;;;;11.85;4.40;;;;;;;5.34;87.76;102705.72;1043661;28;20314;-78
2022/05/09 00:15:12;;;;;;;7.78;3.45;;;;;;;5.21;87.97;102711.25;1039550;28;20318;-78
2022/05/09 00:15:43;;;;;;;9.00;4.18;;;;;;;5.12;88.42;102712.03;1036283;28;20292;-78
2022/05/09 00:16:15;;;;;;;15.38;4.53;;;;;;;5.20;88.36;102714.88;1035257;28;20750;-78
2022/05/09 00:16:50;;;;;;;17.13;4.82;;;;;;;5.33;88.40;102711.13;1036003;28;20671;-78
2022/05/09 00:17:22;;;;;;;12.57;4.20;;;;;;;5.53;88.55;102704.91;1036526;28;20292;-78
2022/05/09 00:17:53;;;;;;;11.77;4.55;;;;;;;5.40;88.00;102709.59;1038296;28;20387;-78
2022/05/09 00:18:25;;;;;;;14.80;4.72;;;;;;;5.08;88.63;102700.06;1043370;28;20295;-78
2022/05/09 00:18:57;;;;;;;10.77;5.55;;;;;;;5.19;89.34;102712.31;1043889;28;20295;-78
2022/05/09 00:19:28;;;;;;;10.60;4.45;;;;;;;5.35;89.09;102706.53;1044895;28;20365;-76
2022/05/09 00:20:00;;;;;;;9.75;5.13;;;;;;;5.09;89.40;102706.19;1044422;28;20361;-77
2022/05/09 00:20:32;;;;;;;11.20;3.97;;;;;;;5.06;90.01;102704.66;1044188;28;20287;-78
2022/05/09 00:21:04;;;;;;;9.52;4.57;;;;;;;5.03;89.82;102702.28;1043364;28;20298;-78
2022/05/09 00:21:40;;;;;;;12.48;4.07;;;;;;;4.93;90.29;102702.28;1039401;28;20362;-78
2022/05/09 00:22:12;;;;;;;20.27;5.30;;;;;;;5.04;90.28;102701.31;1039001;28;20786;-78
2022/05/09 00:22:49;;;;;;;9.40;4.80;;;;;;;4.94;90.31;102706.56;1040715;28;20299;-78
2022/05/09 00:23:21;;;;;;;14.90;4.60;;;;;;;4.94;90.28;102703.09;1037646;28;20289;-78
2022/05/09 00:23:53;;;;;;;13.32;4.18;;;;;;;4.96;90.21;102701.16;1036520;28;20307;-78
2022/05/09 00:24:24;;;;;;;9.77;4.05;;;;;;;5.04;90.12;102703.97;1039487;28;20311;-78
2022/05/09 00:24:59;;;;;;;17.60;4.97;;;;;;;5.15;89.89;102700.38;1040247;28;20821;-78
2022/05/09 00:25:31;;;;;;;12.70;5.28;;;;;;;5.04;90.10;102698.69;1043792;28;20303;-78
2022/05/09 00:26:02;;;;;;;9.13;4.43;;;;;;;4.96;89.79;102698.53;1043470;28;20295;-78
2022/05/09 00:26:35;;;;;;;13.52;4.72;;;;;;;4.96;89.95;102695.88;1043528;28;20649;-78
2022/05/09 00:27:06;;;;;;;8.45;4.35;;;;;;;5.23;90.24;102693.47;1043882;28;20291;-78
2022/05/09 00:27:38;;;;;;;31.80;5.00;;;;;;;5.10;89.72;102703.41;1043301;28;20303;-78
2022/05/09 00:28:09;;;;;;;13.02;4.50;;;;;;;4.74;90.26;102691.63;1043869;28;20406;-78
2022/05/09 00:28:41;;;;;;;14.77;4.18;;;;;;;4.73;90.75;102689.13;1043828;28;20291;-78
2022/05/09 00:29:14;;;;;;;10.45;3.78;;;;;;;5.07;90.34;102693.13;1043453;28;20307;-78
2022/05/09 00:29:46;;;;;;;17.63;4.97;;;;;;;5.30;90.05;102693.75;1043957;28;20295;-78
2022/05/09 00:30:18;;;;;;;9.25;4.45;;;;;;;5.21;89.26;102694.56;1043555;28;20643;-78
2022/05/09 00:30:50;;;;;;;9.73;5.43;;;;;;;5.19;88.86;102684.09;1043108;28;20811;-79
2022/05/09 00:31:26;;;;;;;17.60;4.75;;;;;;;5.39;88.75;102686.78;1043136;28;20839;-78
2022/05/09 00:31:58;;;;;;;15.30;5.03;;;;;;;5.39;88.33;102686.78;1043859;28;20299;-78
2022/05/09 00:32:29;;;;;;;10.70;4.43;;;;;;;5.59;88.20;102688.50;1041423;28;20292;-78
2022/05/09 00:33:07;;;;;;;12.20;4.40;;;;;;;5.61;87.64;102689.19;1041588;28;20292;-78
2022/05/09 00:33:39;;;;;;;16.52;4.90;;;;;;;5.61;87.73;102686.56;1043864;28;20346;-78
2022/05/09 00:34:17;;;;;;;16.05;4.93;;;;;;;5.73;87.80;102690.72;1044177;28;20295;-78
2022/05/09 00:34:48;;;;;;;14.55;5.72;;;;;;;5.68;88.24;102692.94;1044115;28;20303;-78
2022/05/09 00:35:20;;;;;;;17.25;5.50;;;;;;;5.82;88.15;102694.34;1043831;28;20335;-78
2022/05/09 00:35:52;;;;;;;18.98;6.63;;;;;;;5.99;88.00;102695.47;1043251;28;20342;-78
2022/05/09 00:36:24;;;;;;;35.90;5.82;;;;;;;6.09;87.96;102691.03;1040245;28;20320;-77
2022/05/09 00:36:57;;;;;;;44.45;5.82;;;;;;;6.07;87.44;102682.41;1039989;28;20407;-78
2022/05/09 00:37:28;;;;;;;27.55;5.85;;;;;;;6.05;87.64;102689.66;1040068;28;20300;-78
2022/05/09 00:38:00;;;;;;;22.25;6.05;;;;;;;6.06;87.46;102692.16;1043783;28;20323;-78
2022/05/09 00:38:31;;;;;;;22.08;5.70;;;;;;;6.10;87.05;102693.53;1041207;28;20299;-78
2022/05/09 00:39:03;;;;;;;17.33;5.03;;;;;;;6.14;86.77;102686.13;1043304;28;20303;-78
2022/05/09 00:39:35;;;;;;;23.23;5.68;;;;;;;6.09;86.60;102675.16;1039813;28;20288;-78
2022/05/09 00:40:08;;;;;;;18.15;5.63;;;;;;;6.07;86.55;102690.34;1039301;28;20654;-78
2022/05/09 00:41:28;;;;;;;18.98;5.05;;;;;;;5.96;86.31;102690.47;1035925;28;20652;-78
2022/05/09 00:41:34;;;;;;;17.55;6.00;;;;;;;5.96;86.88;102695.75;1030989;28;20309;-78
2022/05/09 00:42:11;;;;;;;14.65;4.32;;;;;;;5.85;86.67;102688.78;1027366;28;20290;-78
2022/05/09 00:43:02;;;;;;;19.52;4.55;;;;;;;5.77;86.92;102681.56;1033008;28;20822;-78
2022/05/09 00:43:37;;;;;;;15.40;4.45;;;;;;;5.77;86.82;102692.13;1035253;28;20334;-78
2022/05/09 00:44:12;;;;;;;12.10;4.20;;;;;;;5.71;86.96;102687.38;1039163;28;20304;-78
2022/05/09 00:44:43;;;;;;;17.13;5.13;;;;;;;5.88;87.00;102689.34;1039419;28;20313;-78
2022/05/09 00:45:17;;;;;;;8.88;3.65;;;;;;;5.97;86.71;102686.84;1040284;28;20300;-78
2022/05/09 00:45:52;;;;;;;10.15;4.93;;;;;;;6.06;86.64;102683.38;1041517;28;20808;-78
2022/05/09 00:46:25;;;;;;;14.73;5.00;;;;;;;5.95;86.45;102686.16;1043559;28;20307;-78
2022/05/09 00:46:56;;;;;;;18.98;5.18;;;;;;;6.05;86.33;102681.72;1043647;28;20299;-78
2022/05/09 00:47:28;;;;;;;14.20;5.00;;;;;;;5.81;86.10;102682.09;1044101;28;20336;-78
2022/05/09 00:48:00;;;;;;;17.80;4.35;;;;;;;5.86;86.31;102686.00;1043134;28;20819;-78
2022/05/09 00:48:32;;;;;;;11.10;4.93;;;;;;;5.97;86.03;102681.56;1039367;28;20292;-78
2022/05/09 00:49:07;;;;;;;7.53;4.13;;;;;;;6.04;85.99;102682.69;1039610;28;20328;-78
2022/05/09 00:49:49;;;;;;;9.70;4.13;;;;;;;5.98;85.84;102677.94;1040105;28;20303;-78
2022/05/09 00:50:28;;;;;;;18.58;5.22;;;;;;;6.04;85.88;102687.97;1042687;28;20306;-78
2022/05/09 00:51:00;;;;;;;9.32;4.55;;;;;;;5.99;85.93;102675.16;1039384;28;20358;-76
2022/05/09 00:51:32;;;;;;;14.48;4.40;;;;;;;5.98;86.12;102683.22;1039468;28;20311;-76
2022/05/09 00:52:21;;;;;;;15.18;7.57;;;;;;;5.96;85.94;102677.25;1041457;28;20307;-76
2022/05/09 00:52:57;;;;;;;12.93;5.50;;;;;;;5.99;86.16;102679.59;1041410;28;20299;-77
2022/05/09 00:53:31;;;;;;;10.23;4.50;;;;;;;5.99;85.60;102672.50;1044137;28;20292;-77
2022/05/09 00:54:03;;;;;;;10.15;4.20;;;;;;;6.03;85.72;102670.44;1039115;28;20307;-79
2022/05/09 00:54:47;;;;;;;9.48;4.40;;;;;;;6.06;85.77;102675.44;1035318;28;20359;-78
2022/05/09 00:55:27;;;;;;;9.23;4.13;;;;;;;5.69;85.64;102670.81;1037645;28;20812;-78
2022/05/09 00:56:02;;;;;;;10.75;4.20;;;;;;;6.00;85.57;102678.63;1039275;28;20307;-78
2022/05/09 00:56:58;;;;;;;17.38;4.40;;;;;;;5.89;85.68;102676.94;1042644;28;20773;-79
2022/05/09 00:57:40;;;;;;;28.13;6.78;;;;;;;5.99;85.67;102683.09;1038754;28;20366;-78
2022/05/09 00:58:38;;;;;;;32.97;4.55;;;;;;;6.03;85.80;102671.28;1040245;28;20303;-78
2022/05/09 00:59:13;;;;;;;20.50;4.57;;;;;;;6.06;85.80;102667.50;1040205;28;20313;-78
2022/05/09 00:59:46;;;;;;;10.48;4.60;;;;;;;6.10;85.60;102668.88;1043506;28;20808;-78
2022/05/09 01:00:22;;;;;;;18.20;4.32;;;;;;;5.99;85.34;102664.56;1043270;28;20304;-78
2022/05/09 01:00:55;;;;;;;10.68;4.05;;;;;;;6.00;85.86;102675.97;1043233;28;20307;-78
2022/05/09 01:01:27;;;;;;;10.40;4.68;;;;;;;6.08;85.95;102670.84;1041091;28;20292;-78
2022/05/09 01:01:58;;;;;;;11.45;4.50;;;;;;;6.00;86.06;102674.16;1039193;28;20299;-78
2022/05/09 01:02:31;;;;;;;11.35;4.47;;;;;;;6.08;86.10;102668.19;1039232;28;20304;-78
2022/05/09 01:03:06;;;;;;;21.73;7.75;;;;;;;5.92;86.07;102673.22;1036347;28;20296;-78
2022/05/09 01:03:45;;;;;;;12.38;4.15;;;;;;;5.99;86.01;102669.84;1034048;28;20285;-78
2022/05/09 01:04:22;;;;;;;13.38;5.28;;;;;;;5.97;86.06;102670.97;1037229;28;20304;-78
2022/05/09 01:04:55;;;;;;;10.00;4.18;;;;;;;5.99;86.16;102672.50;1035413;28;20298;-78
2022/05/09 01:05:29;;;;;;;10.57;4.43;;;;;;;6.10;86.04;102671.53;1037535;28;20312;-78
2022/05/09 01:06:01;;;;;;;16.58;4.35;;;;;;;5.78;85.81;102672.66;1039056;28;20304;-78
2022/05/09 01:06:33;;;;;;;11.00;3.85;;;;;;;5.89;85.88;102669.88;1039535;28;20296;-79
2022/05/09 01:07:04;;;;;;;18.95;4.75;;;;;;;5.99;85.68;102672.50;1034754;28;20308;-78
2022/05/09 01:07:37;;;;;;;14.30;4.70;;;;;;;5.91;85.78;102664.44;1038075;28;20315;-78
2022/05/09 01:08:09;;;;;;;12.02;4.38;;;;;;;5.63;85.56;102665.25;1040422;28;20324;-78
2022/05/09 01:08:41;;;;;;;12.88;5.07;;;;;;;5.73;85.58;102672.22;1040065;28;20303;-78
2022/05/09 01:09:12;;;;;;;11.85;5.35;;;;;;;5.48;85.55;102670.13;1039048;28;20311;-78
2022/05/09 01:09:44;;;;;;;11.90;4.90;;;;;;;5.33;85.91;102668.84;1039302;28;20303;-78
2022/05/09 01:10:16;;;;;;;17.20;6.05;;;;;;;5.41;85.94;102669.00;1035643;28;20774;-78
2022/05/09 01:10:48;;;;;;;12.20;4.68;;;;;;;5.65;86.35;102671.25;1038915;28;20741;-78
2022/05/09 01:11:22;;;;;;;10.40;3.95;;;;;;;5.46;86.43;102677.34;1039561;28;20296;-78
2022/05/09 01:11:53;;;;;;;12.50;4.88;;;;;;;5.54;86.65;102669.56;1034536;28;20372;-78
2022/05/09 01:12:31;;;;;;;11.18;4.40;;;;;;;5.41;86.41;102669.00;1039224;28;20665;-78
2022/05/09 01:13:05;;;;;;;17.42;4.55;;;;;;;5.40;86.57;102672.59;1036875;28;20309;-78
2022/05/09 01:13:44;;;;;;;12.15;4.60;;;;;;;5.42;86.28;102671.50;1036645;28;20715;-78
2022/05/09 01:14:23;;;;;;;11.68;4.32;;;;;;;5.25;86.78;102675.66;1030891;28;20671;-78
2022/05/09 01:15:04;;;;;;;15.07;4.78;;;;;;;5.34;87.05;102673.16;1034715;28;20378;-78
2022/05/09 01:15:36;;;;;;;11.00;4.32;;;;;;;5.34;87.05;102673.16;1038860;28;20311;-78
2022/05/09 01:16:08;;;;;;;9.75;4.60;;;;;;;5.53;86.98;102673.19;1037824;28;20293;-78
2022/05/09 01:16:40;;;;;;;10.10;4.63;;;;;;;5.65;86.90;102677.38;1037325;28;20292;-79
2022/05/09 01:17:12;;;;;;;10.80;4.20;;;;;;;5.43;87.11;102672.34;1039445;28;20395;-78
2022/05/09 01:17:46;;;;;;;8.05;4.72;;;;;;;5.58;87.08;102673.63;1031837;28;20406;-78
2022/05/09 01:18:18;;;;;;;12.70;4.85;;;;;;;5.64;86.81;102667.75;1032537;28;20300;-78
2022/05/09 01:18:52;;;;;;;14.00;4.28;;;;;;;5.52;86.32;102666.25;1034990;28;20304;-78
2022/05/09 01:19:30;;;;;;;17.85;4.60;;;;;;;5.28;86.28;102664.81;1035912;28;20320;-77
2022/05/09 01:20:02;;;;;;;12.57;5.03;;;;;;;5.38;86.85;102669.28;1041784;28;20300;-77
2022/05/09 01:20:35;;;;;;;10.23;4.22;;;;;;;5.26;87.02;102665.94;1043811;28;20315;-78
2022/05/09 01:21:44;;;;;;;14.68;4.18;;;;;;;5.44;87.43;102660.78;1043578;28;20306;-78
2022/05/09 01:22:30;;;;;;;10.70;4.47;;;;;;;5.42;87.17;102670.66;1043680;28;20773;-78
2022/05/09 01:23:03;;;;;;;7.63;4.43;;;;;;;5.33;87.79;102668.84;1043583;28;20310;-78
2022/05/09 01:23:36;;;;;;;13.10;4.55;;;;;;;5.27;87.38;102660.50;1043339;28;20373;-78
2022/05/09 01:24:21;;;;;;;13.75;4.88;;;;;;;5.42;87.74;102666.22;1042971;28;20628;-78
2022/05/09 01:24:55;;;;;;;13.07;4.60;;;;;;;5.57;87.51;102671.94;1039164;28;20307;-77
2022/05/09 01:25:31;;;;;;;9.00;4.72;;;;;;;5.73;87.45;102664.28;1038061;28;20641;-78
2022/05/09 01:26:03;;;;;;;11.32;5.35;;;;;;;5.69;87.12;102662.06;1035065;28;20342;-78
2022/05/09 01:26:35;;;;;;;16.17;5.28;;;;;;;5.77;86.96;102675.44;1036877;28;20718;-78
2022/05/09 01:27:06;;;;;;;11.75;5.30;;;;;;;5.74;86.70;102668.59;1040233;28;20307;-78
2022/05/09 01:27:40;;;;;;;10.32;4.80;;;;;;;5.64;86.92;102669.56;1043346;28;20307;-78
2022/05/09 01:28:12;;;;;;;16.45;4.90;;;;;;;5.55;87.56;102671.25;1043506;28;20346;-78
2022/05/09 01:28:44;;;;;;;13.80;4.90;;;;;;;5.65;87.73;102672.06;1043674;28;20338;-78
2022/05/09 01:29:17;;;;;;;17.60;4.95;;;;;;;5.59;87.42;102667.34;1038788;28;20363;-78
2022/05/09 01:30:06;;;;;;;13.35;5.88;;;;;;;5.59;87.57;102664.72;1039093;28;20338;-78
2022/05/09 01:30:56;;;;;;;14.93;5.15;;;;;;;5.67;87.16;102678.06;1039591;28;20288;-78
2022/05/09 01:31:28;;;;;;;12.13;4.82;;;;;;;5.59;87.57;102667.34;1036292;28;20799;-78
2022/05/09 01:31:59;;;;;;;16.65;4.88;;;;;;;5.56;87.69;102667.63;1039472;28;20310;-78
2022/05/09 01:32:37;;;;;;;14.70;5.68;;;;;;;5.54;87.54;102665.13;1038225;28;20685;-78
2022/05/09 01:33:22;;;;;;;14.68;5.32;;;;;;;5.55;87.59;102665.97;1037375;28;20308;-78
2022/05/09 01:33:54;;;;;;;11.68;4.80;;;;;;;5.22;87.18;102660.09;1029917;28;20494;-78
2022/05/09 01:34:27;;;;;;;11.00;4.53;;;;;;;5.02;87.15;102661.00;1034686;28;20289;-78
2022/05/09 01:35:04;;;;;;;15.05;4.63;;;;;;;5.04;87.48;102666.97;1033363;28;20316;-78
2022/05/09 01:35:47;;;;;;;68.60;8.93;;;;;;;5.25;87.77;102659.81;1036178;28;20305;-78
2022/05/09 01:36:32;;;;;;;170.20;18.65;;;;;;;5.46;87.91;102661.47;1038298;28;20646;-78
2022/05/09 01:37:07;;;;;;;159.93;16.85;;;;;;;5.47;87.50;102656.06;1038726;28;20347;-78
2022/05/09 01:37:39;;;;;;;56.90;7.68;;;;;;;5.36;87.72;102660.66;1035415;28;20336;-78
2022/05/09 01:38:32;;;;;;;12.75;5.18;;;;;;;5.11;87.59;102664.63;1033960;28;20301;-78
2022/05/09 01:39:10;;;;;;;47.88;8.02;;;;;;;5.26;87.94;102660.66;1034938;28;20308;-76
2022/05/09 01:39:42;;;;;;;45.05;8.73;;;;;;;5.25;88.06;102664.25;1035196;28;20305;-76
2022/05/09 01:40:13;;;;;;;40.58;10.02;;;;;;;5.23;88.16;102659.13;1035507;28;20651;-76
2022/05/09 01:40:45;;;;;;;59.28;9.00;;;;;;;5.41;88.22;102663.72;1035558;28;20821;-76
2022/05/09 01:41:17;;;;;;;76.20;12.27;;;;;;;5.41;87.84;102656.63;1043250;28;20299;-76
2022/05/09 01:41:50;;;;;;;72.35;11.05;;;;;;;5.48;88.13;102656.91;1043467;28;20302;-76
2022/05/09 01:42:25;;;;;;;64.28;9.43;;;;;;;5.28;87.49;102664.81;1041648;28;20770;-76
2022/05/09 01:42:57;;;;;;;80.72;11.93;;;;;;;5.31;87.47;102661.06;1043204;28;20299;-76
2022/05/09 01:43:38;;;;;;;58.70;10.35;;;;;;;5.33;87.40;102653.00;1039246;28;20314;-76
2022/05/09 01:44:11;;;;;;;43.65;7.55;;;;;;;5.37;87.31;102657.03;1038176;28;20308;-78
2022/05/09 01:44:43;;;;;;;39.47;7.60;;;;;;;5.40;87.34;102656.75;1034637;28;20301;-78
2022/05/09 01:45:15;;;;;;;64.53;10.30;;;;;;;5.27;87.35;102659.66;1037452;28;20289;-78
2022/05/09 01:45:46;;;;;;;41.70;8.10;;;;;;;5.45;87.71;102659.81;1040034;28;20300;-76
2022/05/09 01:46:23;;;;;;;25.15;6.05;;;;;;;5.53;87.00;102652.06;1040589;28;20378;-76
2022/05/09 01:49:35;;;;;;;14.70;5.70;;;;;;;5.25;87.23;102653.69;1034873;28;20309;-77
2022/05/09 01:50:07;;;;;;;18.73;5.22;;;;;;;5.41;87.48;102653.13;1037079;28;20316;-76
2022/05/09 01:50:39;;;;;;;13.02;5.80;;;;;;;5.49;87.40;102648.03;1045297;28;20295;-76
2022/05/09 01:51:13;;;;;;;15.90;5.00;;;;;;;5.45;87.18;102649.25;1047349;28;20772;-76
2022/05/09 01:51:46;;;;;;;16.27;5.80;;;;;;;5.50;87.23;102654.97;1046385;28;20562;-76
2022/05/09 01:52:19;;;;;;;15.63;5.55;;;;;;;5.28;86.92;102651.59;1043588;28;20376;-76
2022/05/09 01:52:50;;;;;;;26.13;6.68;;;;;;;5.07;87.05;102652.66;1038726;28;20382;-76
2022/05/09 01:53:22;;;;;;;18.70;5.85;;;;;;;5.01;87.40;102651.41;1039279;28;20307;-76
2022/05/09 01:54:00;;;;;;;11.15;5.55;;;;;;;4.98;87.48;102651.69;1040330;28;20307;-76
2022/05/09 01:54:33;;;;;;;18.83;5.57;;;;;;;5.10;87.54;102650.59;1041036;28;20342;-76
2022/05/09 01:55:05;;;;;;;17.02;5.20;;;;;;;5.17;87.60;102651.72;1040140;28;20303;-76
2022/05/09 01:55:37;;;;;;;12.80;4.75;;;;;;;5.21;87.48;102647.84;1039163;28;20663;-76
2022/05/09 01:56:12;;;;;;;12.30;4.45;;;;;;;5.11;87.54;102648.78;1040360;28;20303;-76
2022/05/09 01:56:44;;;;;;;10.63;5.80;;;;;;;5.23;87.49;102656.47;1040764;28;20288;-76
2022/05/09 01:57:16;;;;;;;11.50;5.20;;;;;;;5.34;87.84;102647.56;1043364;28;20306;-76
2022/05/09 01:57:49;;;;;;;12.90;5.80;;;;;;;5.29;88.02;102644.50;1043650;28;20282;-76
2022/05/09 01:58:20;;;;;;;14.85;5.80;;;;;;;5.40;87.84;102654.94;1041285;28;20319;-77
2022/05/09 01:58:52;;;;;;;14.30;5.40;;;;;;;5.48;87.51;102649.00;1043614;28;20303;-76
2022/05/09 01:59:24;;;;;;;13.70;5.15;;;;;;;5.11;87.57;102646.13;1043772;28;20355;-76
2022/05/09 01:59:55;;;;;;;10.63;5.50;;;;;;;5.14;87.76;102648.50;1041011;28;20300;-76
2022/05/09 02:00:28;;;;;;;13.02;5.53;;;;;;;5.11;87.86;102657.53;1043432;28;20700;-76
2022/05/09 02:01:00;;;;;;;16.05;6.18;;;;;;;5.11;87.69;102646.97;1039956;28;20311;-76
2022/05/09 02:01:38;;;;;;;12.45;5.97;;;;;;;4.87;87.74;102649.97;1039198;28;20316;-76
2022/05/09 02:02:14;;;;;;;15.25;5.72;;;;;;;5.12;88.17;102647.81;1032908;28;21056;-76
2022/05/09 02:02:46;;;;;;;11.07;5.63;;;;;;;5.25;87.98;102654.53;1032997;28;20347;-76
2022/05/09 02:03:19;;;;;;;10.57;5.13;;;;;;;5.28;88.00;102648.13;1033608;28;20289;-77
2022/05/09 02:03:52;;;;;;;11.55;5.35;;;;;;;5.47;87.99;102649.94;1037066;28;20360;-78
2022/05/09 02:04:24;;;;;;;11.63;5.32;;;;;;;5.47;87.77;102648.13;1036106;28;20300;-77
2022/05/09 02:04:56;;;;;;;13.43;5.50;;;;;;;5.52;87.73;102653.84;1032236;28;20301;-78
2022/05/09 02:05:27;;;;;;;13.25;5.82;;;;;;;5.57;87.43;102656.09;1027307;28;20373;-78
2022/05/09 02:06:00;;;;;;;12.95;6.32;;;;;;;5.57;87.46;102653.44;1025918;28;20327;-78
2022/05/09 02:06:31;;;;;;;12.30;5.85;;;;;;;5.51;87.42;102648.72;1027122;28;20488;-77
2022/05/09 02:07:05;;;;;;;14.45;6.95;;;;;;;5.49;87.56;102655.94;1031855;28;20344;-78
2022/05/09 02:07:37;;;;;;;18.85;5.47;;;;;;;5.48;87.46;102655.13;1035500;28;20304;-78
2022/05/09 02:08:08;;;;;;;17.75;7.88;;;;;;;5.53;87.37;102654.69;1032249;28;20308;-77
2022/05/09 02:08:40;;;;;;;15.45;6.07;;;;;;;5.54;87.42;102653.72;1036009;28;20296;-76
2022/05/09 02:09:12;;;;;;;16.05;6.72;;;;;;;5.56;87.35;102655.25;1040014;28;20798;-76
2022/05/09 02:09:46;;;;;;;14.02;6.43;;;;;;;5.53;87.30;102657.34;1042884;28;20837;-76
2022/05/09 02:10:18;;;;;;;16.67;5.78;;;;;;;5.47;87.42;102649.94;1042341;28;20789;-78
2022/05/09 02:10:49;;;;;;;25.88;8.15;;;;;;;5.54;87.96;102659.00;1043438;28;20295;-78
2022/05/09 02:11:21;;;;;;;12.20;5.97;;;;;;;5.53;87.56;102659.97;1043092;28;20654;-78
2022/05/09 02:11:52;;;;;;;13.45;6.03;;;;;;;5.53;87.15;102657.34;1043290;28;20645;-77
2022/05/09 02:12:24;;;;;;;16.70;7.03;;;;;;;5.47;87.22;102652.59;1039506;28;20299;-78
2022/05/09 02:12:56;;;;;;;11.15;6.45;;;;;;;5.42;87.34;102650.34;1034927;28;20300;-78
2022/05/09 02:13:28;;;;;;;13.48;6.00;;;;;;;5.56;87.09;102657.06;1035099;28;20313;-78
2022/05/09 02:14:00;;;;;;;9.10;6.10;;;;;;;5.58;86.93;102657.75;1036796;28;20285;-78
2022/05/09 02:14:31;;;;;;;17.50;6.85;;;;;;;5.60;86.58;102655.81;1043285;28;20295;-78
2022/05/09 02:15:03;;;;;;;16.77;5.53;;;;;;;5.63;86.60;102650.22;1043709;28;20295;-78
2022/05/09 02:15:35;;;;;;;23.45;5.82;;;;;;;5.62;86.08;102648.56;1043026;28;20310;-78
2022/05/09 02:16:07;;;;;;;15.75;6.07;;;;;;;5.60;86.57;102650.50;1043960;28;20287;-78
2022/05/09 02:16:39;;;;;;;12.25;5.65;;;;;;;5.62;86.59;102650.38;1043248;28;20299;-78
2022/05/09 02:17:11;;;;;;;11.38;5.30;;;;;;;5.53;86.34;102654.69;1039103;28;20303;-79
2022/05/09 02:17:45;;;;;;;16.13;7.05;;;;;;;5.51;86.30;102660.13;1035159;28;20285;-78
2022/05/09 02:18:17;;;;;;;17.40;6.45;;;;;;;5.27;86.43;102652.59;1034015;28;20286;-78
2022/05/09 02:18:48;;;;;;;19.27;5.15;;;;;;;5.04;86.47;102651.13;1040079;28;20304;-78
2022/05/09 02:19:20;;;;;;;14.68;5.63;;;;;;;5.08;86.79;102652.53;1040680;28;20721;-78
2022/05/09 02:19:51;;;;;;;17.60;5.55;;;;;;;4.94;86.76;102656.41;1040191;28;20327;-78
2022/05/09 02:20:23;;;;;;;11.70;5.25;;;;;;;4.93;87.07;102656.50;1039806;28;20295;-78
2022/05/09 02:20:55;;;;;;;21.27;5.18;;;;;;;5.07;87.31;102656.16;1032133;28;20316;-78
2022/05/09 02:21:26;;;;;;;30.83;7.53;;;;;;;5.17;87.48;102646.44;1030162;28;20290;-78
2022/05/09 02:22:00;;;;;;;26.08;5.50;;;;;;;4.97;86.79;102650.84;1035645;28;20783;-78
2022/05/09 02:22:32;;;;;;;17.58;6.20;;;;;;;4.77;86.92;102646.47;1032170;28;20827;-78
2022/05/09 02:23:04;;;;;;;25.38;5.90;;;;;;;4.82;87.28;102656.63;1034631;28;20284;-78
2022/05/09 02:23:36;;;;;;;31.40;7.35;;;;;;;4.86;87.75;102658.03;1038366;28;20820;-78
2022/05/09 02:24:08;;;;;;;22.08;6.57;;;;;;;4.75;87.38;102648.41;1035773;28;20316;-78
2022/05/09 02:24:39;;;;;;;24.10;6.40;;;;;;;5.03;88.08;102664.47;1044386;28;20713;-78
2022/05/09 02:25:26;;;;;;;13.82;6.03;;;;;;;5.17;88.17;102643.78;1043985;28;20313;-79
2022/05/09 02:25:58;;;;;;;15.93;5.30;;;;;;;4.69;88.13;102650.75;1042747;28;20299;-78
2022/05/09 02:26:31;;;;;;;28.75;7.15;;;;;;;4.83;88.40;102648.56;1041952;28;20347;-78
2022/05/09 02:27:03;;;;;;;13.82;6.40;;;;;;;4.89;88.04;102652.47;1039726;28;20299;-78
2022/05/09 02:27:35;;;;;;;27.13;7.20;;;;;;;4.76;87.86;102649.25;1035377;28;21437;-78
2022/05/09 02:28:09;;;;;;;28.60;6.78;;;;;;;4.78;88.38;102652.59;1036607;28;20316;-78
2022/05/09 02:28:41;;;;;;;18.35;7.03;;;;;;;4.90;88.00;102649.69;1036698;28;20297;-78
2022/05/09 02:29:13;;;;;;;20.58;7.18;;;;;;;4.95;88.16;102658.06;1040559;28;20307;-78
2022/05/09 02:29:44;;;;;;;19.13;6.45;;;;;;;4.69;87.82;102650.75;1040126;28;20314;-78
2022/05/09 02:30:17;;;;;;;15.20;5.05;;;;;;;4.64;87.29;102640.56;1040734;28;20299;-78
2022/05/09 02:30:50;;;;;;;17.63;5.72;;;;;;;4.82;87.81;102654.81;1039910;28;20311;-78
2022/05/09 02:31:23;;;;;;;21.27;6.93;;;;;;;4.90;87.69;102648.84;1040779;28;20307;-78
2022/05/09 02:31:57;;;;;;;15.90;6.55;;;;;;;4.68;88.10;102649.09;1040152;28;20288;-78
2022/05/09 02:32:28;;;;;;;12.18;6.75;;;;;;;4.72;87.77;102647.84;1041736;28;20335;-76
2022/05/09 02:33:00;;;;;;;14.73;6.97;;;;;;;4.82;88.28;102652.19;1044602;28;20436;-78
2022/05/09 02:33:32;;;;;;;15.48;6.22;;;;;;;4.97;88.45;102656.13;1044153;28;20307;-78
2022/05/09 02:34:03;;;;;;;17.00;6.78;;;;;;;5.05;88.49;102652.81;1044106;28;20361;-78
2022/05/09 02:34:35;;;;;;;14.80;5.82;;;;;;;5.03;88.50;102652.09;1039918;28;21160;-78
2022/05/09 02:35:07;;;;;;;14.43;6.05;;;;;;;4.98;88.37;102656.97;1040066;28;20818;-77
2022/05/09 02:35:39;;;;;;;17.05;6.15;;;;;;;4.81;88.28;102649.69;1040262;28;20299;-78
2022/05/09 02:36:11;;;;;;;14.48;5.60;;;;;;;4.95;88.59;102651.97;1036487;28;20297;-78
2022/05/09 02:36:43;;;;;;;17.23;6.55;;;;;;;5.06;88.52;102651.84;1037894;28;20315;-78
2022/05/09 02:37:14;;;;;;;14.32;6.53;;;;;;;5.21;88.61;102650.50;1035766;28;20343;-78
2022/05/09 02:37:48;;;;;;;15.80;6.35;;;;;;;5.18;88.65;102658.66;1036541;28;20304;-78
2022/05/09 02:38:20;;;;;;;16.83;7.13;;;;;;;5.19;88.41;102649.75;1040708;28;20654;-78
2022/05/09 02:38:53;;;;;;;13.32;7.07;;;;;;;5.13;88.15;102654.75;1038761;28;20297;-76
2022/05/09 02:39:25;;;;;;;19.88;6.93;;;;;;;5.23;88.22;102656.47;1039793;28;20812;-78
2022/05/09 02:39:56;;;;;;;16.77;7.03;;;;;;;5.24;87.93;102652.84;1038382;28;20299;-77
2022/05/09 02:40:28;;;;;;;16.35;6.50;;;;;;;5.22;87.90;102652.16;1040147;28;20287;-78